Latest Weather Observations for Sydney Harbour

IDN60901

Issued at 9:51 am EDT Friday 19 December 2014 (issued every 10 minutes, with the page automatically refreshed every 10 minutes)

About weather observations | Map of Sydney area stations | Latest observations for Sydney area | Other Formats
Station Details ID: 066196 Name: WEDDING CAKE WEST Lat: -33.84 Lon: 151.26 Height: 6.0 m
Data from the previous 72 hours. | See also: Recent months for locations in New South Wales
Date/Time
EDT
Tmp

°C
App
Tmp
°C
Dew
Point
°C
Rel
Hum
%
Delta-T

°C
Wind Press
QNH
hPa
Press
MSL
hPa
Rain
since
9 am
mm
Dir
 
Spd
km/h
Gust
km/h
Spd
kts
Gust
kts
19/09:30am 19.4 - - - - S 35 46 19 25 - - -
19/09:00am 19.4 - - - - S 39 52 21 28 - - -
19/08:30am 19.5 - - - - S 33 50 18 27 - - -
19/08:00am 19.4 - - - - S 41 54 22 29 - - -
19/07:30am 19.4 - - - - S 39 50 21 27 - - -
19/07:03am 19.1 - - - - S 37 56 20 30 - - -
19/07:00am 19.3 - - - - S 35 50 19 27 - - -
19/06:30am 19.1 - - - - S 44 56 24 30 - - -
19/06:00am 19.1 - - - - S 44 56 24 30 - - -
19/05:30am 19.3 - - - - SSW 46 61 25 33 - - -
19/05:00am 19.3 - - - - SSW 39 48 21 26 - - -
19/04:30am 19.3 - - - - SSW 46 57 25 31 - - -
19/04:06am 21.5 - - - - WSW 28 61 15 33 - - -
19/04:00am 21.8 - - - - W 26 33 14 18 - - -
19/03:30am 21.5 - - - - WSW 24 32 13 17 - - -
19/03:00am 21.5 - - - - WSW 22 30 12 16 - - -
19/02:30am 21.9 - - - - WSW 17 26 9 14 - - -
19/02:00am 21.9 - - - - WSW 13 17 7 9 - - -
19/01:30am 21.6 - - - - SW 13 15 7 8 - - -
19/01:00am 21.7 - - - - NNE 2 11 1 6 - - -
19/12:30am 21.9 - - - - CALM 0 0 0 0 - - -
19/12:00am 22.0 - - - - CALM 0 7 0 4 - - -
 
Date/Time
EDT
Tmp

°C
App
Tmp
°C
Dew
Point
°C
Rel
Hum
%
Delta-T

°C
Wind Press
QNH
hPa
Press
MSL
hPa
Rain
since
9 am
mm
Dir
 
Spd
km/h
Gust
km/h
Spd
kts
Gust
kts
18/11:30pm 21.9 - - - - NNE 6 7 3 4 - - -
18/11:00pm 21.8 - - - - NNE 6 9 3 5 - - -
18/10:30pm 22.0 - - - - N 13 15 7 8 - - -
18/10:00pm 22.1 - - - - N 17 19 9 10 - - -
18/09:30pm 22.1 - - - - N 17 20 9 11 - - -
18/09:00pm 21.9 - - - - NNE 17 20 9 11 - - -
18/08:30pm 21.9 - - - - NNE 20 24 11 13 - - -
18/08:00pm 22.1 - - - - NNE 24 32 13 17 - - -
18/07:30pm 22.3 - - - - NE 20 24 11 13 - - -
18/07:00pm 22.5 - - - - NNE 22 30 12 16 - - -
18/06:30pm 22.5 - - - - NE 22 30 12 16 - - -
18/06:00pm 22.4 - - - - ENE 22 26 12 14 - - -
18/05:30pm 22.5 - - - - NE 22 28 12 15 - - -
18/05:00pm 22.4 - - - - NE 20 26 11 14 - - -
18/04:30pm 22.6 - - - - NE 20 28 11 15 - - -
18/04:00pm 22.3 - - - - ENE 19 28 10 15 - - -
18/03:30pm 22.1 - - - - ENE 19 26 10 14 - - -
18/03:00pm 22.2 - - - - ENE 19 28 10 15 - - -
18/02:30pm 22.0 - - - - ENE 15 19 8 10 - - -
18/02:00pm 21.9 - - - - ENE 13 17 7 9 - - -
18/01:30pm 21.9 - - - - E 11 13 6 7 - - -
18/01:00pm 22.0 - - - - E 9 13 5 7 - - -
18/12:30pm 21.3 - - - - NNW 2 9 1 5 - - -
18/12:00pm 20.5 - - - - WSW 2 9 1 5 - - -
18/11:30am 20.5 - - - - WSW 4 7 2 4 - - -
18/11:00am 19.7 - - - - WSW 9 11 5 6 - - -
18/10:30am 19.0 - - - - WSW 9 11 5 6 - - -
18/10:00am 18.4 - - - - WSW 11 13 6 7 - - -
18/09:30am 18.4 - - - - W 11 15 6 8 - - -
18/09:00am 18.7 - - - - W 11 17 6 9 - - -
18/08:30am 18.6 - - - - WSW 15 17 8 9 - - -
18/08:00am 18.5 - - - - WSW 17 20 9 11 - - -
18/07:30am 18.4 - - - - W 15 17 8 9 - - -
18/07:00am 18.7 - - - - WSW 15 19 8 10 - - -
18/06:30am 19.3 - - - - E 6 9 3 5 - - -
18/06:00am 19.8 - - - - NNE 9 15 5 8 - - -
18/05:30am 20.0 - - - - NE 11 19 6 10 - - -
18/05:00am 20.1 - - - - ESE 7 11 4 6 - - -
18/04:30am 20.0 - - - - ESE 7 9 4 5 - - -
18/04:00am 19.9 - - - - SE 11 15 6 8 - - -
18/03:30am 19.8 - - - - ESE 11 13 6 7 - - -
18/03:00am 19.8 - - - - E 11 13 6 7 - - -
18/02:30am 19.7 - - - - ENE 13 17 7 9 - - -
18/02:00am 19.7 - - - - E 11 13 6 7 - - -
18/01:30am 19.7 - - - - ESE 13 15 7 8 - - -
18/01:00am 19.6 - - - - ENE 15 20 8 11 - - -
18/12:30am 19.8 - - - - E 13 19 7 10 - - -
18/12:00am 19.8 - - - - ENE 11 20 6 11 - - -
 
Date/Time
EDT
Tmp

°C
App
Tmp
°C
Dew
Point
°C
Rel
Hum
%
Delta-T

°C
Wind Press
QNH
hPa
Press
MSL
hPa
Rain
since
9 am
mm
Dir
 
Spd
km/h
Gust
km/h
Spd
kts
Gust
kts
17/11:30pm 19.8 - - - - E 7 11 4 6 - - -
17/11:00pm 19.5 - - - - E 7 9 4 5 - - -
17/10:30pm 19.3 - - - - NE 11 17 6 9 - - -
17/10:00pm 19.1 - - - - ENE 11 17 6 9 - - -
17/09:30pm 19.6 - - - - ENE 11 20 6 11 - - -
17/09:00pm 19.8 - - - - E 13 20 7 11 - - -
17/08:30pm 19.7 - - - - E 17 20 9 11 - - -
17/08:00pm 19.7 - - - - ESE 19 22 10 12 - - -
17/07:30pm 19.7 - - - - SE 20 26 11 14 - - -
17/07:00pm 19.7 - - - - SE 20 26 11 14 - - -
17/06:30pm 19.7 - - - - SE 19 26 10 14 - - -
17/06:00pm 19.7 - - - - SE 20 26 11 14 - - -
17/05:30pm 19.8 - - - - SE 22 28 12 15 - - -
17/05:00pm 19.7 - - - - SE 20 28 11 15 - - -
17/04:30pm 19.8 - - - - SE 22 28 12 15 - - -
17/04:00pm 20.2 - - - - SE 22 30 12 16 - - -
17/03:30pm 20.0 - - - - SE 24 33 13 18 - - -
17/03:00pm 20.3 - - - - SE 26 35 14 19 - - -
17/02:30pm 19.9 - - - - SE 28 37 15 20 - - -
17/02:00pm 20.1 - - - - SSE 28 33 15 18 - - -
17/01:30pm 20.1 - - - - SE 30 35 16 19 - - -
17/01:00pm 20.1 - - - - SSE 28 37 15 20 - - -
17/12:30pm 19.7 - - - - SSE 24 33 13 18 - - -
17/12:00pm 19.9 - - - - S 30 41 16 22 - - -
17/11:30am 20.1 - - - - SSE 30 43 16 23 - - -
17/11:00am 19.7 - - - - S 32 41 17 22 - - -
17/10:30am 19.8 - - - - S 33 43 18 23 - - -
17/10:00am 19.9 - - - - S 33 46 18 25 - - -
17/09:31am 19.7 - - - - S 35 54 19 29 - - -
17/09:30am 19.8 - - - - S 35 48 19 26 - - -
17/09:00am 19.8 - - - - S 35 48 19 26 - - -
17/08:36am 19.8 - - - - S 35 54 19 29 - - -
17/08:30am 20.0 - - - - S 37 54 20 29 - - -
17/08:00am 19.9 - - - - S 39 48 21 26 - - -
17/07:30am 19.9 - - - - S 33 50 18 27 - - -
17/07:00am 20.0 - - - - S 46 63 25 34 - - -
17/06:30am 19.9 - - - - S 43 67 23 36 - - -
17/06:00am 20.1 - - - - S 50 65 27 35 - - -
17/05:30am 20.0 - - - - SSW 44 57 24 31 - - -
17/05:00am 19.9 - - - - S 46 57 25 31 - - -
17/04:51am 20.2 - - - - S 48 61 26 33 - - -
17/04:37am 22.9 - - - - SW 37 61 20 33 - - -
17/04:33am 22.6 - - - - SW 28 48 15 26 - - -
17/04:30am 22.1 - - - - WSW 22 28 12 15 - - -
17/04:00am 22.5 - - - - W 24 30 13 16 - - -
17/03:30am 23.2 - - - - W 20 26 11 14 - - -
17/03:00am 23.0 - - - - W 17 20 9 11 - - -
17/02:30am 23.7 - - - - WNW 17 26 9 14 - - -
17/02:00am 23.0 - - - - SSW 9 15 5 8 - - -
17/01:30am 23.3 - - - - SW 11 15 6 8 - - -
17/01:00am 21.8 - - - - ENE 9 13 5 7 - - -
17/12:30am 21.9 - - - - NE 11 13 6 7 - - -
17/12:00am 22.9 - - - - NE 11 13 6 7 - - -
 
Date/Time
EDT
Tmp

°C
App
Tmp
°C
Dew
Point
°C
Rel
Hum
%
Delta-T

°C
Wind Press
QNH
hPa
Press
MSL
hPa
Rain
since
9 am
mm
Dir
 
Spd
km/h
Gust
km/h
Spd
kts
Gust
kts
16/11:30pm 22.4 - - - - NNE 15 17 8 9 - - -
16/11:00pm 22.0 - - - - NNE 19 20 10 11 - - -
16/10:30pm 21.7 - - - - NNE 17 19 9 10 - - -
16/10:00pm 21.6 - - - - NNE 11 15 6 8 - - -
16/09:30pm 21.9 - - - - NNE 13 17 7 9 - - -
16/09:00pm 22.2 - - - - NNE 22 30 12 16 - - -
16/08:30pm 22.0 - - - - NNE 28 33 15 18 - - -
16/08:00pm 22.0 - - - - NNE 22 30 12 16 - - -
16/07:30pm 21.8 - - - - NNE 32 44 17 24 - - -
16/07:00pm 22.0 - - - - NNE 37 52 20 28 - - -
16/06:45pm 22.1 - - - - NNE 39 57 21 31 - - -
16/06:30pm 22.1 - - - - NNE 43 59 23 32 - - -
16/06:08pm 22.0 - - - - NNE 50 69 27 37 - - -
16/06:00pm 22.0 - - - - NNE 54 69 29 37 - - -
16/05:30pm 22.0 - - - - NNE 56 67 30 36 - - -
16/05:00pm 22.0 - - - - NNE 54 69 29 37 - - -
16/04:30pm 21.9 - - - - NNE 59 70 32 38 - - -
16/04:00pm 21.7 - - - - NNE 56 65 30 35 - - -
16/03:30pm 21.7 - - - - NNE 54 65 29 35 - - -
16/03:00pm 21.7 - - - - NNE 57 69 31 37 - - -
16/02:30pm 21.7 - - - - NNE 52 61 28 33 - - -
16/02:00pm 21.5 - - - - NNE 46 56 25 30 - - -
16/01:30pm 21.3 - - - - NNE 46 59 25 32 - - -
16/01:00pm 21.4 - - - - NNE 48 61 26 33 - - -
16/12:30pm 21.4 - - - - NNE 48 57 26 31 - - -
16/12:00pm 21.2 - - - - NNE 43 50 23 27 - - -
16/11:30am 21.1 - - - - NNE 37 46 20 25 - - -
16/11:00am 21.0 - - - - NE 28 33 15 18 - - -
16/10:30am 21.0 - - - - NE 30 37 16 20 - - -
16/10:00am 20.9 - - - - NE 30 35 16 19 - - -

Latest Capital City Observations: Canberra | Sydney | Melbourne | Brisbane | Adelaide | Perth | Hobart | Darwin

Other Formats:

Comma delimited format used in spreadsheet applications
http://www.bom.gov.au/fwo/IDN60901/IDN60901.95766.axf

JavaScript Object Notation format (JSON) in row-major order
http://www.bom.gov.au/fwo/IDN60901/IDN60901.95766.json